createdAt,value
2018-12-09T00:01:23.719Z,93.30
2018-12-09T00:03:51.277Z,93.20
2018-12-09T00:06:18.854Z,92.80
2018-12-09T00:08:46.421Z,93.00
2018-12-09T00:11:13.996Z,92.50
2018-12-09T00:13:41.568Z,92.60
2018-12-09T00:16:09.130Z,92.90
2018-12-09T00:18:36.688Z,93.40
2018-12-09T00:21:04.228Z,93.80
2018-12-09T00:23:31.798Z,94.00
2018-12-09T00:25:59.356Z,94.00
2018-12-09T00:28:27.125Z,94.00
2018-12-09T00:30:54.654Z,93.80
2018-12-09T00:33:22.215Z,93.80
2018-12-09T00:35:49.795Z,94.00
2018-12-09T00:38:17.362Z,94.10
2018-12-09T00:40:44.931Z,94.30
2018-12-09T00:43:12.537Z,94.40
2018-12-09T00:45:40.086Z,94.50
2018-12-09T00:48:07.620Z,94.60
2018-12-09T00:50:35.181Z,94.60
2018-12-09T00:53:02.743Z,94.60
2018-12-09T00:55:30.303Z,94.60
2018-12-09T00:57:57.852Z,94.60
2018-12-09T01:00:25.413Z,94.50
2018-12-09T01:02:53.002Z,94.40
2018-12-09T01:05:20.604Z,94.20
2018-12-09T01:07:48.166Z,94.20
2018-12-09T01:10:15.863Z,94.20
2018-12-09T01:12:43.411Z,94.20
2018-12-09T01:15:11.019Z,94.10
2018-12-09T01:17:38.541Z,93.90
2018-12-09T01:20:07.294Z,94.00
2018-12-09T01:22:34.929Z,94.10
2018-12-09T01:25:02.530Z,94.20
2018-12-09T01:27:30.075Z,94.30
2018-12-09T01:29:57.620Z,94.40
2018-12-09T01:32:25.393Z,94.50
2018-12-09T01:34:52.948Z,94.50
2018-12-09T01:37:20.504Z,94.40
2018-12-09T01:39:48.374Z,94.50
2018-12-09T01:42:16.197Z,94.40
2018-12-09T01:44:43.754Z,94.30
2018-12-09T01:47:11.338Z,94.40
2018-12-09T01:49:38.911Z,94.40
2018-12-09T01:52:06.609Z,94.30
2018-12-09T01:54:34.176Z,94.30
2018-12-09T01:57:01.780Z,94.30
2018-12-09T01:59:29.387Z,94.40
2018-12-09T02:01:57.051Z,94.30
2018-12-09T02:04:24.646Z,94.20
2018-12-09T02:06:52.198Z,94.10
2018-12-09T02:09:19.809Z,94.10
2018-12-09T02:11:47.370Z,94.00
2018-12-09T02:16:48.904Z,94.00
2018-12-09T02:19:16.552Z,94.00
2018-12-09T02:21:44.419Z,94.00
2018-12-09T02:24:11.967Z,94.10
2018-12-09T02:26:39.575Z,94.20
2018-12-09T02:29:07.298Z,94.30
2018-12-09T02:31:34.934Z,94.40
2018-12-09T02:34:02.517Z,94.30
2018-12-09T02:36:30.133Z,94.30
2018-12-09T02:38:57.743Z,94.40
2018-12-09T02:41:25.329Z,94.70
2018-12-09T02:43:52.911Z,95.00
2018-12-09T02:46:20.498Z,95.20
2018-12-09T02:48:48.462Z,95.20
2018-12-09T02:51:16.056Z,95.10
2018-12-09T02:53:43.666Z,95.20
2018-12-09T02:56:11.229Z,95.40
2018-12-09T02:58:38.795Z,95.70
2018-12-09T03:01:06.895Z,96.10
2018-12-09T03:03:34.490Z,96.20
2018-12-09T03:06:02.073Z,96.40
2018-12-09T03:08:29.634Z,96.60
2018-12-09T03:10:57.239Z,96.90
2018-12-09T03:13:24.794Z,97.20
2018-12-09T03:15:52.406Z,97.60
2018-12-09T03:18:20.022Z,97.90
2018-12-09T03:20:47.639Z,98.20
2018-12-09T03:23:15.267Z,99.00
2018-12-09T03:25:42.874Z,99.20
2018-12-09T03:28:10.452Z,99.30
2018-12-09T03:30:38.023Z,99.40
2018-12-09T03:33:05.633Z,99.60
2018-12-09T03:35:33.291Z,99.80
2018-12-09T03:38:00.854Z,99.90
2018-12-09T03:40:28.401Z,99.90
2018-12-09T03:42:55.958Z,99.90
2018-12-09T03:45:23.531Z,99.90
2018-12-09T03:47:51.114Z,99.90
2018-12-09T03:50:18.660Z,99.70
2018-12-09T03:52:46.252Z,99.00
2018-12-09T03:55:13.867Z,98.70
2018-12-09T03:57:41.404Z,98.50
2018-12-09T04:00:09.065Z,98.20
2018-12-09T04:02:36.610Z,97.70
2018-12-09T04:05:04.330Z,97.50
2018-12-09T04:07:31.910Z,97.40
2018-12-09T04:09:59.487Z,97.30
2018-12-09T04:12:27.075Z,97.30
2018-12-09T04:14:54.677Z,97.40
2018-12-09T04:17:22.261Z,97.40
2018-12-09T04:19:49.838Z,97.30
2018-12-09T04:22:17.415Z,97.30
2018-12-09T04:24:45.026Z,97.30
2018-12-09T04:27:12.736Z,97.20
2018-12-09T04:29:40.327Z,97.00
2018-12-09T04:32:08.585Z,96.80
2018-12-09T04:34:36.163Z,96.70
2018-12-09T04:37:03.716Z,96.60
2018-12-09T04:39:31.288Z,96.60
2018-12-09T04:41:58.840Z,96.30
2018-12-09T04:44:26.455Z,96.10
2018-12-09T04:46:54.002Z,96.00
2018-12-09T04:49:21.547Z,95.90
2018-12-09T04:51:54.717Z,95.80
2018-12-09T04:54:22.286Z,95.60
2018-12-09T04:56:49.900Z,95.50
2018-12-09T04:59:18.651Z,95.30
2018-12-09T05:01:47.346Z,95.20
2018-12-09T05:04:14.936Z,95.20
2018-12-09T05:06:42.623Z,95.20
2018-12-09T05:09:10.188Z,95.20
2018-12-09T05:11:37.754Z,95.20
2018-12-09T05:14:05.571Z,95.10
2018-12-09T05:16:33.180Z,95.10
2018-12-09T05:19:00.765Z,95.30
2018-12-09T05:21:28.327Z,95.20
2018-12-09T05:23:55.985Z,95.10
2018-12-09T05:26:23.890Z,94.90
2018-12-09T05:28:51.529Z,95.00
2018-12-09T05:31:19.099Z,94.90
2018-12-09T05:33:46.677Z,94.90
2018-12-09T05:36:14.244Z,95.20
2018-12-09T05:38:42.142Z,95.00
2018-12-09T05:41:09.698Z,94.90
2018-12-09T05:43:37.264Z,94.80
2018-12-09T05:46:04.819Z,94.90
2018-12-09T05:48:32.384Z,94.90
2018-12-09T05:51:00.458Z,94.80
2018-12-09T05:53:28.056Z,94.80
2018-12-09T05:55:55.585Z,94.80
2018-12-09T05:58:25.174Z,94.80
2018-12-09T06:00:52.716Z,94.60
2018-12-09T06:03:20.700Z,94.70
2018-12-09T06:05:48.253Z,94.70
2018-12-09T06:08:15.836Z,94.70
2018-12-09T06:10:43.402Z,94.60
2018-12-09T06:13:10.961Z,94.60
2018-12-09T06:15:39.074Z,94.60
2018-12-09T06:18:06.685Z,94.70
2018-12-09T06:20:34.266Z,95.00
2018-12-09T06:23:01.826Z,94.70
2018-12-09T06:25:29.399Z,94.70
2018-12-09T06:27:56.990Z,94.70
2018-12-09T06:30:24.548Z,94.60
2018-12-09T06:32:52.143Z,94.60
2018-12-09T06:35:19.748Z,94.60
2018-12-09T06:37:47.300Z,94.50
2018-12-09T06:40:14.895Z,94.40
2018-12-09T06:42:42.454Z,94.40
2018-12-09T06:45:10.114Z,94.30
2018-12-09T06:47:37.698Z,94.30
2018-12-09T06:50:05.450Z,94.20
2018-12-09T06:52:32.988Z,94.30
2018-12-09T06:55:00.583Z,94.40
2018-12-09T06:57:28.143Z,94.40
2018-12-09T06:59:55.678Z,94.40
2018-12-09T07:02:23.256Z,94.30
2018-12-09T07:04:50.916Z,94.30
2018-12-09T07:07:18.922Z,94.20
2018-12-09T07:09:46.493Z,94.60
2018-12-09T07:12:14.059Z,94.60
2018-12-09T07:14:41.640Z,95.20
2018-12-09T07:17:09.245Z,95.70
2018-12-09T07:19:36.892Z,96.20
2018-12-09T07:22:04.458Z,96.50
2018-12-09T07:24:32.083Z,96.80
2018-12-09T07:26:59.681Z,97.00
2018-12-09T07:29:27.248Z,97.30
2018-12-09T07:31:54.830Z,97.60
2018-12-09T07:34:22.439Z,97.90
2018-12-09T07:36:50.153Z,98.10
2018-12-09T07:39:17.736Z,98.20
2018-12-09T07:41:45.321Z,98.30
2018-12-09T07:44:12.922Z,98.40
2018-12-09T07:46:40.943Z,98.50
2018-12-09T07:49:08.545Z,98.60
2018-12-09T07:51:36.173Z,98.70
2018-12-09T07:54:03.791Z,98.70
2018-12-09T07:56:31.380Z,98.70
2018-12-09T07:58:58.960Z,98.70
2018-12-09T08:01:26.546Z,98.60
2018-12-09T08:03:54.077Z,98.50
2018-12-09T08:06:21.638Z,98.30
2018-12-09T08:08:49.202Z,98.20
2018-12-09T08:11:16.847Z,98.10
2018-12-09T08:13:44.463Z,97.90
2018-12-09T08:16:12.090Z,97.90
2018-12-09T08:18:39.670Z,97.80
2018-12-09T08:21:09.124Z,97.80
2018-12-09T08:23:36.829Z,97.80
2018-12-09T08:26:04.367Z,97.70
2018-12-09T08:28:31.946Z,97.80
2018-12-09T08:30:59.518Z,97.60
2018-12-09T08:33:27.174Z,97.60
2018-12-09T08:35:54.818Z,97.50
2018-12-09T08:38:22.407Z,97.50
2018-12-09T08:40:50.014Z,97.50
2018-12-09T08:43:17.623Z,97.40
2018-12-09T08:45:45.180Z,97.40
2018-12-09T08:48:12.752Z,97.50
2018-12-09T08:50:40.341Z,97.90
2018-12-09T08:53:07.917Z,97.40
2018-12-09T08:55:36.351Z,97.50
2018-12-09T08:58:04.579Z,97.50
2018-12-09T09:00:32.148Z,97.70
2018-12-09T09:02:59.718Z,97.70
2018-12-09T09:05:27.280Z,97.60
2018-12-09T09:07:54.850Z,97.60
2018-12-09T09:10:22.422Z,97.60
2018-12-09T09:12:50.009Z,97.40
2018-12-09T09:15:17.617Z,97.40
2018-12-09T09:17:45.181Z,97.20
2018-12-09T09:20:12.745Z,96.90
2018-12-09T09:22:40.319Z,97.00
2018-12-09T09:25:07.855Z,97.00
2018-12-09T09:27:35.453Z,97.10
2018-12-09T09:30:03.803Z,97.10
2018-12-09T09:32:31.365Z,97.10
2018-12-09T09:34:58.933Z,97.30
2018-12-09T09:37:26.501Z,97.90
2018-12-09T09:39:54.066Z,98.50
2018-12-09T09:42:21.617Z,99.00
2018-12-09T09:44:49.264Z,99.50
2018-12-09T09:47:17.281Z,99.90
2018-12-09T09:49:46.091Z,99.90
2018-12-09T09:52:14.302Z,99.90
2018-12-09T09:54:41.953Z,99.90
2018-12-09T09:57:09.498Z,99.90
2018-12-09T09:59:37.107Z,99.90
2018-12-09T10:02:04.730Z,99.90
2018-12-09T10:04:32.329Z,99.90
2018-12-09T10:06:59.906Z,99.90
2018-12-09T10:09:27.446Z,99.90
2018-12-09T10:11:55.008Z,99.90
2018-12-09T10:14:22.561Z,99.90
2018-12-09T10:16:50.122Z,99.90
2018-12-09T10:19:17.692Z,99.90
2018-12-09T10:21:45.347Z,99.90
2018-12-09T10:24:12.977Z,99.90
2018-12-09T10:26:40.580Z,99.90
2018-12-09T10:29:08.146Z,99.90
2018-12-09T10:31:35.783Z,99.90
2018-12-09T10:34:03.447Z,99.90
2018-12-09T10:36:31.099Z,99.90
2018-12-09T10:38:58.647Z,99.90
2018-12-09T10:41:26.224Z,99.90
2018-12-09T10:43:53.843Z,99.70
2018-12-09T10:46:21.878Z,98.90
2018-12-09T10:48:49.723Z,98.30
2018-12-09T10:51:17.507Z,97.50
2018-12-09T10:53:45.110Z,97.10
2018-12-09T10:56:12.968Z,97.30
2018-12-09T10:58:40.720Z,97.50
2018-12-09T11:01:10.391Z,97.40
2018-12-09T11:03:37.995Z,97.20
2018-12-09T11:06:05.643Z,97.20
2018-12-09T11:08:33.266Z,97.20
2018-12-09T11:11:00.828Z,97.30
2018-12-09T11:13:28.401Z,97.20
2018-12-09T11:15:55.962Z,97.50
2018-12-09T11:18:23.522Z,97.50
2018-12-09T11:20:51.186Z,97.80
2018-12-09T11:23:18.824Z,97.70
2018-12-09T11:25:47.854Z,98.00
2018-12-09T11:28:15.491Z,98.60
2018-12-09T11:30:43.975Z,99.00
2018-12-09T11:33:11.947Z,99.20
2018-12-09T11:35:41.263Z,98.90
2018-12-09T11:38:08.921Z,98.60
2018-12-09T11:40:38.092Z,98.30
2018-12-09T11:43:05.789Z,98.40
2018-12-09T11:45:33.455Z,98.00
2018-12-09T11:48:02.764Z,97.70
2018-12-09T11:50:30.367Z,97.50
2018-12-09T11:52:57.918Z,97.40
2018-12-09T11:55:25.701Z,96.60
2018-12-09T11:57:53.266Z,96.40
2018-12-09T12:00:20.822Z,96.10
2018-12-09T12:02:48.373Z,96.00
2018-12-09T12:05:15.942Z,95.80
2018-12-09T12:07:43.480Z,95.80
2018-12-09T12:10:11.083Z,95.90
2018-12-09T12:12:38.707Z,96.00
2018-12-09T12:15:06.297Z,95.70
2018-12-09T12:17:33.885Z,95.50
2018-12-09T12:20:01.497Z,95.10
2018-12-09T12:22:29.058Z,95.10
2018-12-09T12:24:56.715Z,94.80
2018-12-09T12:27:24.305Z,94.70
2018-12-09T12:29:51.866Z,94.50
2018-12-09T12:32:19.475Z,94.50
2018-12-09T12:34:47.073Z,94.40
2018-12-09T12:37:14.742Z,94.10
2018-12-09T12:39:42.481Z,93.80
2018-12-09T12:42:10.093Z,93.10
2018-12-09T12:44:37.721Z,92.80
2018-12-09T12:47:05.278Z,92.30
2018-12-09T12:49:32.845Z,92.80
2018-12-09T12:52:00.540Z,92.80
2018-12-09T12:54:28.150Z,92.80
2018-12-09T12:56:55.696Z,92.70
2018-12-09T12:59:23.262Z,92.70
2018-12-09T13:01:50.897Z,92.30
2018-12-09T13:04:18.479Z,92.10
2018-12-09T13:06:46.031Z,92.40
2018-12-09T13:09:13.595Z,92.40
2018-12-09T13:11:41.211Z,92.00
2018-12-09T13:14:08.805Z,91.50
2018-12-09T13:16:36.411Z,91.80
2018-12-09T13:19:03.937Z,93.00
2018-12-09T13:21:31.498Z,93.50
2018-12-09T13:23:59.057Z,94.60
2018-12-09T13:26:26.622Z,95.10
2018-12-09T13:28:54.197Z,95.20
2018-12-09T13:31:21.764Z,95.60
2018-12-09T13:33:49.296Z,95.80
2018-12-09T13:36:16.934Z,95.80
2018-12-09T13:38:45.433Z,95.90
2018-12-09T13:41:12.992Z,95.80
2018-12-09T13:43:40.659Z,95.70
2018-12-09T13:46:08.233Z,95.80
2018-12-09T13:48:35.929Z,96.00
2018-12-09T13:51:03.562Z,96.00
2018-12-09T13:53:31.122Z,95.90
2018-12-09T13:55:58.729Z,96.00
2018-12-09T13:58:26.313Z,96.10
2018-12-09T14:00:53.850Z,96.10
2018-12-09T14:03:21.434Z,96.10
2018-12-09T14:05:48.992Z,96.10
2018-12-09T14:08:16.585Z,96.00
2018-12-09T14:10:44.142Z,95.50
2018-12-09T14:13:11.701Z,95.10
2018-12-09T14:15:39.275Z,94.70
2018-12-09T14:18:06.836Z,94.40
2018-12-09T14:20:34.431Z,94.10
2018-12-09T14:23:02.119Z,93.80
2018-12-09T14:25:29.701Z,93.30
2018-12-09T14:27:57.273Z,92.90
2018-12-09T14:30:24.843Z,93.10
2018-12-09T14:32:52.424Z,93.10
2018-12-09T14:35:19.983Z,93.30
2018-12-09T14:37:47.638Z,93.40
2018-12-09T14:40:15.208Z,93.70
2018-12-09T14:42:42.773Z,94.00
2018-12-09T14:45:10.322Z,94.00
2018-12-09T14:47:38.022Z,93.40
2018-12-09T14:50:05.601Z,93.10
2018-12-09T14:52:33.154Z,93.30
2018-12-09T14:55:00.762Z,93.70
2018-12-09T14:57:28.316Z,93.60
2018-12-09T14:59:55.943Z,93.50
2018-12-09T15:02:23.498Z,93.60
2018-12-09T15:04:51.180Z,93.70
2018-12-09T15:07:18.790Z,93.90
2018-12-09T15:09:46.629Z,93.90
2018-12-09T15:12:14.460Z,93.90
2018-12-09T15:14:42.111Z,94.00
2018-12-09T15:17:09.704Z,94.10
2018-12-09T15:19:37.311Z,94.10
2018-12-09T15:22:04.899Z,94.10
2018-12-09T15:24:32.448Z,94.20
2018-12-09T15:26:59.996Z,94.50
2018-12-09T15:29:27.563Z,94.70
2018-12-09T15:31:55.122Z,94.80
2018-12-09T15:34:22.690Z,94.90
2018-12-09T15:36:50.298Z,95.00
2018-12-09T15:39:17.977Z,95.00
2018-12-09T15:41:45.550Z,94.70
2018-12-09T15:44:13.327Z,95.10
2018-12-09T15:46:41.049Z,95.80
2018-12-09T15:49:08.741Z,96.40
2018-12-09T15:51:36.653Z,96.70
2018-12-09T15:54:04.315Z,96.90
2018-12-09T15:56:32.119Z,97.00
2018-12-09T15:58:59.761Z,97.20
2018-12-09T16:01:27.342Z,97.30
2018-12-09T16:03:54.897Z,97.50
2018-12-09T16:06:23.464Z,97.70
2018-12-09T16:08:51.131Z,97.80
2018-12-09T16:11:18.772Z,97.80
2018-12-09T16:13:46.335Z,97.60
2018-12-09T16:16:13.916Z,97.40
2018-12-09T16:18:41.600Z,97.30
2018-12-09T16:21:09.179Z,97.30
2018-12-09T16:23:36.888Z,97.20
2018-12-09T16:26:04.646Z,97.20
2018-12-09T16:28:32.370Z,96.90
2018-12-09T16:30:59.961Z,96.70
2018-12-09T16:33:27.518Z,96.60
2018-12-09T16:35:55.176Z,96.50
2018-12-09T16:38:22.788Z,96.20
2018-12-09T16:40:50.363Z,96.30
2018-12-09T16:43:18.051Z,96.20
2018-12-09T16:45:45.614Z,96.40
2018-12-09T16:48:13.173Z,96.00
2018-12-09T16:50:40.748Z,95.60
2018-12-09T16:53:08.309Z,96.30
2018-12-09T16:55:35.897Z,97.20
2018-12-09T16:58:04.202Z,97.70
2018-12-09T17:00:31.880Z,98.00
2018-12-09T17:02:59.493Z,98.00
2018-12-09T17:05:27.106Z,98.40
2018-12-09T17:07:55.653Z,98.60
2018-12-09T17:10:23.345Z,98.70
2018-12-09T17:12:51.002Z,98.50
2018-12-09T17:15:18.620Z,98.20
2018-12-09T17:17:46.198Z,97.90
2018-12-09T17:20:13.757Z,97.70
2018-12-09T17:22:41.366Z,97.40
2018-12-09T17:25:08.908Z,99.00
2018-12-09T17:27:36.567Z,99.90
2018-12-09T17:30:04.650Z,99.90
2018-12-09T17:32:32.245Z,99.90
2018-12-09T17:34:59.836Z,99.90
2018-12-09T17:37:27.498Z,99.90
2018-12-09T17:39:55.075Z,99.90
2018-12-09T17:42:22.644Z,99.90
2018-12-09T17:44:50.291Z,99.90
2018-12-09T17:47:18.069Z,99.90
2018-12-09T17:49:45.651Z,99.90
2018-12-09T17:52:13.226Z,99.90
2018-12-09T17:54:40.888Z,99.90
2018-12-09T17:57:08.533Z,99.90
2018-12-09T17:59:36.183Z,99.90
2018-12-09T18:02:03.849Z,99.90
2018-12-09T18:04:31.409Z,99.90
2018-12-09T18:06:58.967Z,99.90
2018-12-09T18:09:26.602Z,99.90
2018-12-09T18:11:54.810Z,99.90
2018-12-09T18:14:22.440Z,99.90
2018-12-09T18:16:50.026Z,99.90
2018-12-09T18:19:17.680Z,99.90
2018-12-09T18:21:45.272Z,99.90
2018-12-09T18:24:12.903Z,99.90
2018-12-09T18:26:41.708Z,99.90
2018-12-09T18:29:09.314Z,99.90
2018-12-09T18:31:36.874Z,99.90
2018-12-09T18:34:04.444Z,99.90
2018-12-09T18:36:32.041Z,99.90
2018-12-09T18:38:59.606Z,99.90
2018-12-09T18:41:27.166Z,99.90
2018-12-09T18:43:54.737Z,99.90
2018-12-09T18:46:22.392Z,99.90
2018-12-09T18:48:49.953Z,99.90
2018-12-09T18:51:17.567Z,99.90
2018-12-09T18:53:45.178Z,99.90
2018-12-09T18:56:12.836Z,99.90
2018-12-09T18:58:40.438Z,99.90
2018-12-09T19:01:07.988Z,99.90
2018-12-09T19:03:35.628Z,99.90
2018-12-09T19:06:03.397Z,99.90
2018-12-09T19:08:31.067Z,99.90
2018-12-09T19:10:58.723Z,99.90
2018-12-09T19:13:26.464Z,99.90
2018-12-09T19:15:54.195Z,99.90
2018-12-09T19:18:21.775Z,99.90
2018-12-09T19:20:49.437Z,99.90
2018-12-09T19:23:17.068Z,99.90
2018-12-09T19:25:44.634Z,99.90
2018-12-09T19:28:12.187Z,99.90
2018-12-09T19:30:48.048Z,99.90
2018-12-09T19:33:09.507Z,99.90
2018-12-09T19:35:37.093Z,99.90
2018-12-09T19:38:04.622Z,99.90
2018-12-09T19:40:32.193Z,99.90
2018-12-09T19:42:59.801Z,99.90
2018-12-09T19:45:27.345Z,99.90
2018-12-09T19:47:54.926Z,99.90
2018-12-09T19:50:22.561Z,99.90
2018-12-09T19:52:50.117Z,99.90
2018-12-09T19:55:17.673Z,99.90
2018-12-09T19:57:45.201Z,99.90
2018-12-09T20:00:12.762Z,99.90
2018-12-09T20:02:40.318Z,99.90
2018-12-09T20:05:08.050Z,99.90
2018-12-09T20:07:35.660Z,99.90
2018-12-09T20:10:05.038Z,99.90
2018-12-09T20:12:32.630Z,99.90
2018-12-09T20:15:00.166Z,99.90
2018-12-09T20:17:27.747Z,99.90
2018-12-09T20:19:55.402Z,99.90
2018-12-09T20:22:22.985Z,99.70
2018-12-09T20:24:50.547Z,99.70
2018-12-09T20:27:18.106Z,98.70
2018-12-09T20:29:46.230Z,98.40
2018-12-09T20:32:13.890Z,98.40
2018-12-09T20:34:41.467Z,98.60
2018-12-09T20:37:09.051Z,98.10
2018-12-09T20:39:36.844Z,98.30
2018-12-09T20:42:04.391Z,98.10
2018-12-09T20:44:31.958Z,98.00
2018-12-09T20:46:59.491Z,98.00
2018-12-09T20:49:27.171Z,98.10
2018-12-09T20:51:54.751Z,98.30
2018-12-09T20:54:22.397Z,98.30
2018-12-09T20:56:50.157Z,98.50
2018-12-09T20:59:17.755Z,98.40
2018-12-09T21:01:45.361Z,98.40
2018-12-09T21:04:12.937Z,97.90
2018-12-09T21:06:40.494Z,96.80
2018-12-09T21:09:08.050Z,96.00
2018-12-09T21:11:35.649Z,95.30
2018-12-09T21:14:03.415Z,95.00
2018-12-09T21:16:31.154Z,95.30
2018-12-09T21:18:58.708Z,95.70
2018-12-09T21:21:26.339Z,96.60
2018-12-09T21:23:53.925Z,97.00
2018-12-09T21:26:22.439Z,97.30
2018-12-09T21:28:50.190Z,97.70
2018-12-09T21:31:17.873Z,98.00
2018-12-09T21:33:45.461Z,97.50
2018-12-09T21:36:13.110Z,97.70
2018-12-09T21:38:40.723Z,97.50
2018-12-09T21:41:08.320Z,97.30
2018-12-09T21:43:35.977Z,97.00
2018-12-09T21:46:04.083Z,97.30
2018-12-09T21:48:31.674Z,96.60
2018-12-09T21:50:59.214Z,96.80
2018-12-09T21:53:26.779Z,97.40
2018-12-09T21:55:54.364Z,98.10
2018-12-09T21:58:21.935Z,97.90
2018-12-09T22:00:49.507Z,97.90
2018-12-09T22:03:17.069Z,97.20
2018-12-09T22:05:44.631Z,97.00
2018-12-09T22:08:12.153Z,97.00
2018-12-09T22:10:39.713Z,96.70
2018-12-09T22:13:07.274Z,96.10
2018-12-09T22:15:34.857Z,96.00
2018-12-09T22:18:02.422Z,95.40
2018-12-09T22:20:30.053Z,94.90
2018-12-09T22:22:57.633Z,94.70
2018-12-09T22:25:25.225Z,94.40
2018-12-09T22:27:52.778Z,93.90
2018-12-09T22:30:20.367Z,93.60
2018-12-09T22:32:47.945Z,93.90
2018-12-09T22:35:15.507Z,93.70
2018-12-09T22:37:43.075Z,94.20
2018-12-09T22:40:10.668Z,94.20
2018-12-09T22:42:38.898Z,94.10
2018-12-09T22:45:06.467Z,93.80
2018-12-09T22:47:34.041Z,94.10
2018-12-09T22:50:01.646Z,95.30
2018-12-09T22:52:29.242Z,96.00
2018-12-09T22:54:56.803Z,96.50
2018-12-09T22:57:24.373Z,97.20
2018-12-09T22:59:51.941Z,97.70
2018-12-09T23:02:25.269Z,98.10
2018-12-09T23:04:52.878Z,97.60
2018-12-09T23:07:26.310Z,97.80
2018-12-09T23:09:54.004Z,97.50
2018-12-09T23:12:21.651Z,97.30
2018-12-09T23:14:49.566Z,97.10
2018-12-09T23:17:17.172Z,97.00
2018-12-09T23:19:44.870Z,97.00
2018-12-09T23:22:12.579Z,97.10
2018-12-09T23:24:40.214Z,96.80
2018-12-09T23:27:07.852Z,97.40
2018-12-09T23:29:35.454Z,97.50
2018-12-09T23:32:03.345Z,97.70
2018-12-09T23:34:32.029Z,97.40
2018-12-09T23:36:59.687Z,97.20
2018-12-09T23:39:27.407Z,97.20
2018-12-09T23:41:56.026Z,96.90
2018-12-09T23:44:23.677Z,96.70
2018-12-09T23:46:51.356Z,96.50
2018-12-09T23:49:19.119Z,96.00
2018-12-09T23:51:46.751Z,95.80
2018-12-09T23:54:14.460Z,95.80
2018-12-09T23:56:42.088Z,96.00
2018-12-09T23:59:09.740Z,96.10
